sensor_id;sensor_type;location;lat;lon;timestamp;temperature;humidity
30244;DHT22;64022;53.652;9.792;2022-12-18T00:00:42;20.40;56.40
30244;DHT22;64022;53.652;9.792;2022-12-18T00:03:08;20.40;56.40
30244;DHT22;64022;53.652;9.792;2022-12-18T00:05:33;20.40;56.40
30244;DHT22;64022;53.652;9.792;2022-12-18T00:07:59;20.40;56.50
30244;DHT22;64022;53.652;9.792;2022-12-18T00:10:24;20.40;56.50
30244;DHT22;64022;53.652;9.792;2022-12-18T00:12:50;20.40;56.50
30244;DHT22;64022;53.652;9.792;2022-12-18T00:15:16;20.40;56.50
30244;DHT22;64022;53.652;9.792;2022-12-18T00:17:41;20.30;56.50
30244;DHT22;64022;53.652;9.792;2022-12-18T00:20:07;20.30;56.50
30244;DHT22;64022;53.652;9.792;2022-12-18T00:22:33;20.30;56.50
30244;DHT22;64022;53.652;9.792;2022-12-18T00:24:58;20.30;56.50
30244;DHT22;64022;53.652;9.792;2022-12-18T00:27:24;20.30;56.50
30244;DHT22;64022;53.652;9.792;2022-12-18T00:29:50;20.30;56.60
30244;DHT22;64022;53.652;9.792;2022-12-18T00:32:15;20.30;56.60
30244;DHT22;64022;53.652;9.792;2022-12-18T00:34:41;20.30;56.60
30244;DHT22;64022;53.652;9.792;2022-12-18T00:37:06;20.30;56.70
30244;DHT22;64022;53.652;9.792;2022-12-18T00:39:32;20.30;56.70
30244;DHT22;64022;53.652;9.792;2022-12-18T00:41:57;20.30;56.70
30244;DHT22;64022;53.652;9.792;2022-12-18T00:44:41;20.30;56.80
30244;DHT22;64022;53.652;9.792;2022-12-18T00:47:07;20.30;56.80
30244;DHT22;64022;53.652;9.792;2022-12-18T00:49:32;20.20;56.80
30244;DHT22;64022;53.652;9.792;2022-12-18T00:51:58;20.30;56.90
30244;DHT22;64022;53.652;9.792;2022-12-18T00:54:23;20.30;56.90
30244;DHT22;64022;53.652;9.792;2022-12-18T00:56:49;20.30;56.90
30244;DHT22;64022;53.652;9.792;2022-12-18T00:59:16;20.20;56.90
30244;DHT22;64022;53.652;9.792;2022-12-18T01:01:41;20.30;57.00
30244;DHT22;64022;53.652;9.792;2022-12-18T01:04:08;20.30;57.00
30244;DHT22;64022;53.652;9.792;2022-12-18T01:06:33;20.30;57.00
30244;DHT22;64022;53.652;9.792;2022-12-18T01:08:59;20.30;57.00
30244;DHT22;64022;53.652;9.792;2022-12-18T01:11:24;20.20;57.00
30244;DHT22;64022;53.652;9.792;2022-12-18T01:13:52;20.30;57.10
30244;DHT22;64022;53.652;9.792;2022-12-18T01:16:18;20.30;57.20
30244;DHT22;64022;53.652;9.792;2022-12-18T01:18:44;20.30;57.20
30244;DHT22;64022;53.652;9.792;2022-12-18T01:21:13;20.30;57.20
30244;DHT22;64022;53.652;9.792;2022-12-18T01:23:39;20.30;57.20
30244;DHT22;64022;53.652;9.792;2022-12-18T01:26:07;20.30;57.30
30244;DHT22;64022;53.652;9.792;2022-12-18T01:28:33;20.30;57.30
30244;DHT22;64022;53.652;9.792;2022-12-18T01:31:22;20.30;57.30
30244;DHT22;64022;53.652;9.792;2022-12-18T01:33:48;20.30;57.20
30244;DHT22;64022;53.652;9.792;2022-12-18T01:36:32;20.30;57.90
30244;DHT22;64022;53.652;9.792;2022-12-18T01:39:00;20.20;57.30
30244;DHT22;64022;53.652;9.792;2022-12-18T01:41:29;20.30;57.40
30244;DHT22;64022;53.652;9.792;2022-12-18T01:52:46;20.20;57.50
30244;DHT22;64022;53.652;9.792;2022-12-18T01:55:13;20.20;57.50
30244;DHT22;64022;53.652;9.792;2022-12-18T01:57:40;20.20;57.50
30244;DHT22;64022;53.652;9.792;2022-12-18T02:00:25;20.20;57.50
30244;DHT22;64022;53.652;9.792;2022-12-18T02:02:51;20.20;57.30
30244;DHT22;64022;53.652;9.792;2022-12-18T02:08:31;20.20;57.40
30244;DHT22;64022;53.652;9.792;2022-12-18T02:11:12;20.20;57.60
30244;DHT22;64022;53.652;9.792;2022-12-18T02:16:52;20.20;57.40
30244;DHT22;64022;53.652;9.792;2022-12-18T02:25:13;20.10;57.60
30244;DHT22;64022;53.652;9.792;2022-12-18T02:27:41;20.10;57.60
30244;DHT22;64022;53.652;9.792;2022-12-18T02:30:08;20.20;57.70
30244;DHT22;64022;53.652;9.792;2022-12-18T02:32:39;20.10;58.20
30244;DHT22;64022;53.652;9.792;2022-12-18T02:35:08;20.10;57.70
30244;DHT22;64022;53.652;9.792;2022-12-18T02:37:34;20.10;57.70
30244;DHT22;64022;53.652;9.792;2022-12-18T02:40:02;20.10;57.70
30244;DHT22;64022;53.652;9.792;2022-12-18T02:42:29;20.10;57.70
30244;DHT22;64022;53.652;9.792;2022-12-18T02:44:54;20.10;57.70
30244;DHT22;64022;53.652;9.792;2022-12-18T02:47:24;20.10;57.70
30244;DHT22;64022;53.652;9.792;2022-12-18T02:53:17;20.10;57.60
30244;DHT22;64022;53.652;9.792;2022-12-18T02:56:09;20.10;57.70
30244;DHT22;64022;53.652;9.792;2022-12-18T03:01:33;20.10;57.70
30244;DHT22;64022;53.652;9.792;2022-12-18T03:04:01;20.10;57.80
30244;DHT22;64022;53.652;9.792;2022-12-18T03:06:37;20.10;57.60
30244;DHT22;64022;53.652;9.792;2022-12-18T03:09:12;20.10;58.00
30244;DHT22;64022;53.652;9.792;2022-12-18T03:11:42;20.10;58.00
30244;DHT22;64022;53.652;9.792;2022-12-18T03:14:29;20.10;58.00
30244;DHT22;64022;53.652;9.792;2022-12-18T03:17:00;20.10;58.00
30244;DHT22;64022;53.652;9.792;2022-12-18T03:19:28;20.20;58.00
30244;DHT22;64022;53.652;9.792;2022-12-18T03:21:56;20.20;58.00
30244;DHT22;64022;53.652;9.792;2022-12-18T03:24:25;20.20;58.00
30244;DHT22;64022;53.652;9.792;2022-12-18T03:26:54;20.20;58.00
30244;DHT22;64022;53.652;9.792;2022-12-18T03:29:33;20.20;58.00
30244;DHT22;64022;53.652;9.792;2022-12-18T03:32:08;20.20;58.50
30244;DHT22;64022;53.652;9.792;2022-12-18T03:34:37;20.20;58.00
30244;DHT22;64022;53.652;9.792;2022-12-18T03:37:04;20.20;58.00
30244;DHT22;64022;53.652;9.792;2022-12-18T03:39:30;20.20;58.00
30244;DHT22;64022;53.652;9.792;2022-12-18T03:42:15;20.20;58.00
30244;DHT22;64022;53.652;9.792;2022-12-18T03:45:10;20.20;58.00
30244;DHT22;64022;53.652;9.792;2022-12-18T03:53:23;20.10;58.00
30244;DHT22;64022;53.652;9.792;2022-12-18T03:55:51;20.20;57.90
30244;DHT22;64022;53.652;9.792;2022-12-18T03:58:20;20.10;58.00
30244;DHT22;64022;53.652;9.792;2022-12-18T04:00:49;20.10;58.00
30244;DHT22;64022;53.652;9.792;2022-12-18T04:03:17;20.10;58.00
30244;DHT22;64022;53.652;9.792;2022-12-18T04:05:45;20.10;58.00
30244;DHT22;64022;53.652;9.792;2022-12-18T04:08:12;20.10;58.00
30244;DHT22;64022;53.652;9.792;2022-12-18T04:10:38;20.10;58.00
30244;DHT22;64022;53.652;9.792;2022-12-18T04:13:03;20.10;58.00
30244;DHT22;64022;53.652;9.792;2022-12-18T04:15:29;20.10;58.00
30244;DHT22;64022;53.652;9.792;2022-12-18T04:17:54;20.10;58.00
30244;DHT22;64022;53.652;9.792;2022-12-18T04:20:20;20.10;58.00
30244;DHT22;64022;53.652;9.792;2022-12-18T04:22:46;20.10;58.00
30244;DHT22;64022;53.652;9.792;2022-12-18T04:25:11;20.10;58.00
30244;DHT22;64022;53.652;9.792;2022-12-18T04:27:37;20.10;58.00
30244;DHT22;64022;53.652;9.792;2022-12-18T04:30:03;20.10;58.00
30244;DHT22;64022;53.652;9.792;2022-12-18T04:32:29;20.10;58.00
30244;DHT22;64022;53.652;9.792;2022-12-18T04:34:54;20.10;58.00
30244;DHT22;64022;53.652;9.792;2022-12-18T04:37:20;20.00;58.00
30244;DHT22;64022;53.652;9.792;2022-12-18T04:39:45;20.00;58.00
30244;DHT22;64022;53.652;9.792;2022-12-18T04:42:11;20.00;58.00
30244;DHT22;64022;53.652;9.792;2022-12-18T04:44:36;20.00;58.00
30244;DHT22;64022;53.652;9.792;2022-12-18T04:47:02;20.00;58.00
30244;DHT22;64022;53.652;9.792;2022-12-18T04:49:27;20.00;58.00
30244;DHT22;64022;53.652;9.792;2022-12-18T04:51:53;20.00;58.00
30244;DHT22;64022;53.652;9.792;2022-12-18T04:54:19;20.00;58.00
30244;DHT22;64022;53.652;9.792;2022-12-18T04:56:44;20.10;58.10
30244;DHT22;64022;53.652;9.792;2022-12-18T04:59:10;20.10;58.10
30244;DHT22;64022;53.652;9.792;2022-12-18T05:01:35;20.10;58.10
30244;DHT22;64022;53.652;9.792;2022-12-18T05:04:02;20.10;58.10
30244;DHT22;64022;53.652;9.792;2022-12-18T05:06:27;20.10;58.10
30244;DHT22;64022;53.652;9.792;2022-12-18T05:08:53;20.10;58.10
30244;DHT22;64022;53.652;9.792;2022-12-18T05:11:18;20.10;58.10
30244;DHT22;64022;53.652;9.792;2022-12-18T05:13:45;20.10;58.00
30244;DHT22;64022;53.652;9.792;2022-12-18T05:16:12;20.10;58.00
30244;DHT22;64022;53.652;9.792;2022-12-18T05:18:38;20.10;58.00
30244;DHT22;64022;53.652;9.792;2022-12-18T05:21:04;20.10;57.80
30244;DHT22;64022;53.652;9.792;2022-12-18T05:23:30;20.10;58.10
30244;DHT22;64022;53.652;9.792;2022-12-18T05:25:58;20.10;58.00
30244;DHT22;64022;53.652;9.792;2022-12-18T05:28:26;20.10;58.00
30244;DHT22;64022;53.652;9.792;2022-12-18T05:30:57;20.10;58.00
30244;DHT22;64022;53.652;9.792;2022-12-18T05:33:25;20.10;58.00
30244;DHT22;64022;53.652;9.792;2022-12-18T05:35:55;20.20;58.00
30244;DHT22;64022;53.652;9.792;2022-12-18T05:38:22;20.10;58.00
30244;DHT22;64022;53.652;9.792;2022-12-18T05:40:49;20.10;58.00
30244;DHT22;64022;53.652;9.792;2022-12-18T05:43:16;20.10;57.90
30244;DHT22;64022;53.652;9.792;2022-12-18T05:45:41;20.10;57.90
30244;DHT22;64022;53.652;9.792;2022-12-18T05:48:07;20.10;57.90
30244;DHT22;64022;53.652;9.792;2022-12-18T05:50:37;20.10;57.90
30244;DHT22;64022;53.652;9.792;2022-12-18T05:53:03;20.10;57.90
30244;DHT22;64022;53.652;9.792;2022-12-18T05:55:32;20.10;57.90
30244;DHT22;64022;53.652;9.792;2022-12-18T05:57:58;20.10;57.90
30244;DHT22;64022;53.652;9.792;2022-12-18T06:00:23;20.10;57.90
30244;DHT22;64022;53.652;9.792;2022-12-18T06:02:49;20.10;57.90
30244;DHT22;64022;53.652;9.792;2022-12-18T06:05:14;20.00;57.80
30244;DHT22;64022;53.652;9.792;2022-12-18T06:07:40;20.00;57.80
30244;DHT22;64022;53.652;9.792;2022-12-18T06:10:06;20.00;57.80
30244;DHT22;64022;53.652;9.792;2022-12-18T06:12:32;20.00;57.80
30244;DHT22;64022;53.652;9.792;2022-12-18T06:14:59;20.00;57.80
30244;DHT22;64022;53.652;9.792;2022-12-18T06:17:28;20.00;57.80
30244;DHT22;64022;53.652;9.792;2022-12-18T06:19:54;20.00;57.80
30244;DHT22;64022;53.652;9.792;2022-12-18T06:22:19;20.00;57.80
30244;DHT22;64022;53.652;9.792;2022-12-18T06:24:45;20.00;57.80
30244;DHT22;64022;53.652;9.792;2022-12-18T06:27:10;20.10;57.90
30244;DHT22;64022;53.652;9.792;2022-12-18T06:29:36;20.00;57.80
30244;DHT22;64022;53.652;9.792;2022-12-18T06:32:01;20.00;57.80
30244;DHT22;64022;53.652;9.792;2022-12-18T06:34:27;20.00;57.80
30244;DHT22;64022;53.652;9.792;2022-12-18T06:36:52;20.00;57.80
30244;DHT22;64022;53.652;9.792;2022-12-18T06:39:18;20.00;57.70
30244;DHT22;64022;53.652;9.792;2022-12-18T06:41:43;20.00;57.70
30244;DHT22;64022;53.652;9.792;2022-12-18T06:44:09;20.00;57.70
30244;DHT22;64022;53.652;9.792;2022-12-18T06:46:35;20.00;57.70
30244;DHT22;64022;53.652;9.792;2022-12-18T06:49:01;20.00;57.70
30244;DHT22;64022;53.652;9.792;2022-12-18T06:51:26;20.00;57.70
30244;DHT22;64022;53.652;9.792;2022-12-18T06:53:52;20.00;57.70
30244;DHT22;64022;53.652;9.792;2022-12-18T06:56:17;20.00;57.70
30244;DHT22;64022;53.652;9.792;2022-12-18T06:58:43;20.00;57.70
30244;DHT22;64022;53.652;9.792;2022-12-18T07:01:10;20.00;57.70
30244;DHT22;64022;53.652;9.792;2022-12-18T07:03:37;20.00;57.70
30244;DHT22;64022;53.652;9.792;2022-12-18T07:06:03;20.00;57.70
30244;DHT22;64022;53.652;9.792;2022-12-18T07:08:30;20.00;57.50
30244;DHT22;64022;53.652;9.792;2022-12-18T07:10:55;20.00;57.70
30244;DHT22;64022;53.652;9.792;2022-12-18T07:13:21;20.00;57.70
30244;DHT22;64022;53.652;9.792;2022-12-18T07:15:47;20.00;57.60
30244;DHT22;64022;53.652;9.792;2022-12-18T07:18:12;20.10;57.70
30244;DHT22;64022;53.652;9.792;2022-12-18T07:20:37;20.10;57.60
30244;DHT22;64022;53.652;9.792;2022-12-18T07:23:04;20.10;57.60
30244;DHT22;64022;53.652;9.792;2022-12-18T07:25:33;20.10;57.60
30244;DHT22;64022;53.652;9.792;2022-12-18T07:27:59;20.10;57.60
30244;DHT22;64022;53.652;9.792;2022-12-18T07:30:25;20.10;57.60
30244;DHT22;64022;53.652;9.792;2022-12-18T07:32:50;20.10;57.60
30244;DHT22;64022;53.652;9.792;2022-12-18T07:35:15;20.10;57.80
30244;DHT22;64022;53.652;9.792;2022-12-18T07:37:41;20.00;50.70
30244;DHT22;64022;53.652;9.792;2022-12-18T07:40:08;19.50;48.60
30244;DHT22;64022;53.652;9.792;2022-12-18T07:42:33;19.10;50.90
30244;DHT22;64022;53.652;9.792;2022-12-18T07:45:00;19.00;52.10
30244;DHT22;64022;53.652;9.792;2022-12-18T07:47:27;19.00;52.80
30244;DHT22;64022;53.652;9.792;2022-12-18T07:49:53;19.10;53.20
30244;DHT22;64022;53.652;9.792;2022-12-18T07:52:19;19.20;53.50
30244;DHT22;64022;53.652;9.792;2022-12-18T07:54:44;19.30;53.70
30244;DHT22;64022;53.652;9.792;2022-12-18T07:57:10;19.30;53.80
30244;DHT22;64022;53.652;9.792;2022-12-18T07:59:35;19.40;54.00
30244;DHT22;64022;53.652;9.792;2022-12-18T08:02:01;19.50;54.10
30244;DHT22;64022;53.652;9.792;2022-12-18T08:04:27;19.60;54.20
30244;DHT22;64022;53.652;9.792;2022-12-18T08:06:52;19.60;54.20
30244;DHT22;64022;53.652;9.792;2022-12-18T08:09:18;19.70;54.20
30244;DHT22;64022;53.652;9.792;2022-12-18T08:11:43;19.70;54.20
30244;DHT22;64022;53.652;9.792;2022-12-18T08:14:09;19.80;54.20
30244;DHT22;64022;53.652;9.792;2022-12-18T08:16:35;19.80;54.20
30244;DHT22;64022;53.652;9.792;2022-12-18T08:19:01;19.80;54.20
30244;DHT22;64022;53.652;9.792;2022-12-18T08:21:28;19.90;54.20
30244;DHT22;64022;53.652;9.792;2022-12-18T08:23:56;19.90;54.20
30244;DHT22;64022;53.652;9.792;2022-12-18T08:26:23;19.90;54.20
30244;DHT22;64022;53.652;9.792;2022-12-18T08:28:50;19.90;54.30
30244;DHT22;64022;53.652;9.792;2022-12-18T08:31:17;19.90;54.20
30244;DHT22;64022;53.652;9.792;2022-12-18T08:33:43;20.00;54.30
30244;DHT22;64022;53.652;9.792;2022-12-18T08:36:09;20.00;54.30
30244;DHT22;64022;53.652;9.792;2022-12-18T08:38:35;20.00;54.30
30244;DHT22;64022;53.652;9.792;2022-12-18T08:41:01;20.00;54.30
30244;DHT22;64022;53.652;9.792;2022-12-18T08:43:27;20.00;54.30
30244;DHT22;64022;53.652;9.792;2022-12-18T08:46:11;20.00;54.30
30244;DHT22;64022;53.652;9.792;2022-12-18T08:48:37;20.00;54.30
30244;DHT22;64022;53.652;9.792;2022-12-18T08:51:03;20.00;54.30
30244;DHT22;64022;53.652;9.792;2022-12-18T08:53:28;20.00;54.30
30244;DHT22;64022;53.652;9.792;2022-12-18T08:55:56;20.00;54.30
30244;DHT22;64022;53.652;9.792;2022-12-18T08:58:21;20.00;54.30
30244;DHT22;64022;53.652;9.792;2022-12-18T09:00:47;20.00;54.30
30244;DHT22;64022;53.652;9.792;2022-12-18T09:03:18;20.00;54.30
30244;DHT22;64022;53.652;9.792;2022-12-18T09:05:45;20.00;54.30
30244;DHT22;64022;53.652;9.792;2022-12-18T09:08:11;20.00;54.30
30244;DHT22;64022;53.652;9.792;2022-12-18T09:10:44;20.00;54.40
30244;DHT22;64022;53.652;9.792;2022-12-18T09:13:11;20.00;54.40
30244;DHT22;64022;53.652;9.792;2022-12-18T09:15:44;20.00;54.40
30244;DHT22;64022;53.652;9.792;2022-12-18T09:18:11;20.00;54.40
30244;DHT22;64022;53.652;9.792;2022-12-18T09:20:37;20.00;54.40
30244;DHT22;64022;53.652;9.792;2022-12-18T09:23:04;20.00;54.40
30244;DHT22;64022;53.652;9.792;2022-12-18T09:25:30;20.00;54.50
30244;DHT22;64022;53.652;9.792;2022-12-18T09:28:14;20.00;54.50
30244;DHT22;64022;53.652;9.792;2022-12-18T09:30:42;20.00;54.50
30244;DHT22;64022;53.652;9.792;2022-12-18T09:33:08;20.00;54.50
30244;DHT22;64022;53.652;9.792;2022-12-18T09:35:39;20.00;54.50
30244;DHT22;64022;53.652;9.792;2022-12-18T09:38:05;20.00;54.50
30244;DHT22;64022;53.652;9.792;2022-12-18T09:40:52;19.90;54.50
30244;DHT22;64022;53.652;9.792;2022-12-18T09:44:03;20.00;54.50
30244;DHT22;64022;53.652;9.792;2022-12-18T09:46:15;20.00;54.60
30244;DHT22;64022;53.652;9.792;2022-12-18T09:48:45;20.00;54.70
30244;DHT22;64022;53.652;9.792;2022-12-18T09:51:22;19.90;54.60
30244;DHT22;64022;53.652;9.792;2022-12-18T09:54:01;20.00;54.70
30244;DHT22;64022;53.652;9.792;2022-12-18T09:56:30;20.00;54.70
30244;DHT22;64022;53.652;9.792;2022-12-18T09:59:01;20.00;54.80
30244;DHT22;64022;53.652;9.792;2022-12-18T10:01:28;20.00;54.80
30244;DHT22;64022;53.652;9.792;2022-12-18T10:03:55;20.00;54.90
30244;DHT22;64022;53.652;9.792;2022-12-18T10:06:41;20.00;54.90
30244;DHT22;64022;53.652;9.792;2022-12-18T10:09:30;20.00;54.80
30244;DHT22;64022;53.652;9.792;2022-12-18T10:12:23;20.00;54.90
30244;DHT22;64022;53.652;9.792;2022-12-18T10:17:45;20.00;55.10
30244;DHT22;64022;53.652;9.792;2022-12-18T10:20:36;20.00;55.00
30244;DHT22;64022;53.652;9.792;2022-12-18T10:23:51;20.00;55.10
30244;DHT22;64022;53.652;9.792;2022-12-18T10:26:07;20.10;55.30
30244;DHT22;64022;53.652;9.792;2022-12-18T10:28:36;20.00;55.20
30244;DHT22;64022;53.652;9.792;2022-12-18T10:31:15;20.00;55.30
30244;DHT22;64022;53.652;9.792;2022-12-18T10:33:42;20.10;55.50
30244;DHT22;64022;53.652;9.792;2022-12-18T10:36:08;20.10;55.50
30244;DHT22;64022;53.652;9.792;2022-12-18T10:38:33;20.10;55.50
30244;DHT22;64022;53.652;9.792;2022-12-18T10:41:04;20.10;55.60
30244;DHT22;64022;53.652;9.792;2022-12-18T10:43:38;20.10;55.60
30244;DHT22;64022;53.652;9.792;2022-12-18T10:48:39;20.10;55.80
30244;DHT22;64022;53.652;9.792;2022-12-18T10:51:06;20.10;55.70
30244;DHT22;64022;53.652;9.792;2022-12-18T10:53:34;20.10;55.80
30244;DHT22;64022;53.652;9.792;2022-12-18T10:56:00;20.10;55.80
30244;DHT22;64022;53.652;9.792;2022-12-18T10:58:32;20.10;55.80
30244;DHT22;64022;53.652;9.792;2022-12-18T11:01:16;20.10;55.80
30244;DHT22;64022;53.652;9.792;2022-12-18T11:04:04;20.10;55.70
30244;DHT22;64022;53.652;9.792;2022-12-18T11:06:33;20.10;55.60
30244;DHT22;64022;53.652;9.792;2022-12-18T11:09:03;20.10;55.90
30244;DHT22;64022;53.652;9.792;2022-12-18T11:11:29;20.10;55.90
30244;DHT22;64022;53.652;9.792;2022-12-18T11:14:02;20.10;56.00
30244;DHT22;64022;53.652;9.792;2022-12-18T11:16:30;20.10;56.10
30244;DHT22;64022;53.652;9.792;2022-12-18T11:19:20;20.10;56.10
30244;DHT22;64022;53.652;9.792;2022-12-18T11:21:47;20.10;55.90
30244;DHT22;64022;53.652;9.792;2022-12-18T11:26:54;20.10;56.10
30244;DHT22;64022;53.652;9.792;2022-12-18T11:29:27;20.00;56.20
30244;DHT22;64022;53.652;9.792;2022-12-18T11:35:10;20.00;56.00
30244;DHT22;64022;53.652;9.792;2022-12-18T11:37:39;20.00;56.30
30244;DHT22;64022;53.652;9.792;2022-12-18T11:40:16;20.00;56.40
30244;DHT22;64022;53.652;9.792;2022-12-18T11:42:55;20.00;56.30
30244;DHT22;64022;53.652;9.792;2022-12-18T11:45:29;20.00;56.40
30244;DHT22;64022;53.652;9.792;2022-12-18T11:50:49;20.00;56.50
30244;DHT22;64022;53.652;9.792;2022-12-18T11:53:15;20.00;56.30
30244;DHT22;64022;53.652;9.792;2022-12-18T11:58:47;20.00;56.50
30244;DHT22;64022;53.652;9.792;2022-12-18T12:01:16;20.00;56.60
30244;DHT22;64022;53.652;9.792;2022-12-18T12:06:40;20.00;56.70
30244;DHT22;64022;53.652;9.792;2022-12-18T12:09:21;20.00;56.80
30244;DHT22;64022;53.652;9.792;2022-12-18T12:12:31;20.00;56.80
30244;DHT22;64022;53.652;9.792;2022-12-18T12:15:52;20.00;56.70
30244;DHT22;64022;53.652;9.792;2022-12-18T12:18:19;20.00;56.90
30244;DHT22;64022;53.652;9.792;2022-12-18T12:20:58;20.00;56.90
30244;DHT22;64022;53.652;9.792;2022-12-18T12:26:10;20.00;57.20
30244;DHT22;64022;53.652;9.792;2022-12-18T12:28:47;20.10;57.30
30244;DHT22;64022;53.652;9.792;2022-12-18T12:31:29;20.10;57.30
30244;DHT22;64022;53.652;9.792;2022-12-18T12:39:31;20.10;57.30
30244;DHT22;64022;53.652;9.792;2022-12-18T12:41:59;20.10;57.40
30244;DHT22;64022;53.652;9.792;2022-12-18T12:44:46;20.10;57.50
30244;DHT22;64022;53.652;9.792;2022-12-18T12:47:18;20.10;57.50
30244;DHT22;64022;53.652;9.792;2022-12-18T12:49:47;20.10;57.50
30244;DHT22;64022;53.652;9.792;2022-12-18T12:52:26;20.10;57.60
30244;DHT22;64022;53.652;9.792;2022-12-18T12:54:54;20.10;57.50
30244;DHT22;64022;53.652;9.792;2022-12-18T12:57:44;20.10;57.60
30244;DHT22;64022;53.652;9.792;2022-12-18T13:00:18;20.10;57.40
30244;DHT22;64022;53.652;9.792;2022-12-18T13:02:58;20.10;58.20
30244;DHT22;64022;53.652;9.792;2022-12-18T13:08:22;20.10;57.70
30244;DHT22;64022;53.652;9.792;2022-12-18T13:10:47;20.10;57.90
30244;DHT22;64022;53.652;9.792;2022-12-18T13:13:14;20.10;58.50
30244;DHT22;64022;53.652;9.792;2022-12-18T13:15:50;20.10;58.50
30244;DHT22;64022;53.652;9.792;2022-12-18T13:18:28;20.10;58.50
30244;DHT22;64022;53.652;9.792;2022-12-18T13:25:51;20.10;58.10
30244;DHT22;64022;53.652;9.792;2022-12-18T13:30:51;20.10;58.10
30244;DHT22;64022;53.652;9.792;2022-12-18T13:38:21;20.10;58.20
30244;DHT22;64022;53.652;9.792;2022-12-18T13:40:55;20.10;58.10
30244;DHT22;64022;53.652;9.792;2022-12-18T13:45:59;20.10;58.30
30244;DHT22;64022;53.652;9.792;2022-12-18T13:48:26;20.10;58.30
30244;DHT22;64022;53.652;9.792;2022-12-18T13:50:58;20.10;58.40
30244;DHT22;64022;53.652;9.792;2022-12-18T13:53:46;20.10;58.40
30244;DHT22;64022;53.652;9.792;2022-12-18T13:56:25;20.10;58.20
30244;DHT22;64022;53.652;9.792;2022-12-18T14:01:57;20.10;58.30
30244;DHT22;64022;53.652;9.792;2022-12-18T14:04:32;20.10;58.40
30244;DHT22;64022;53.652;9.792;2022-12-18T14:07:04;20.00;58.40
30244;DHT22;64022;53.652;9.792;2022-12-18T14:09:39;20.10;58.50
30244;DHT22;64022;53.652;9.792;2022-12-18T14:12:06;20.00;58.50
30244;DHT22;64022;53.652;9.792;2022-12-18T14:17:58;20.00;58.70
30244;DHT22;64022;53.652;9.792;2022-12-18T14:20:25;20.00;58.70
30244;DHT22;64022;53.652;9.792;2022-12-18T14:22:51;20.00;58.70
30244;DHT22;64022;53.652;9.792;2022-12-18T14:25:25;20.00;58.70
30244;DHT22;64022;53.652;9.792;2022-12-18T14:28:14;20.00;58.60
30244;DHT22;64022;53.652;9.792;2022-12-18T14:30:42;20.00;58.50
30244;DHT22;64022;53.652;9.792;2022-12-18T14:35:54;20.00;58.80
30244;DHT22;64022;53.652;9.792;2022-12-18T14:41:05;20.00;58.80
30244;DHT22;64022;53.652;9.792;2022-12-18T14:43:35;20.00;58.80
30244;DHT22;64022;53.652;9.792;2022-12-18T14:46:03;20.00;58.80
30244;DHT22;64022;53.652;9.792;2022-12-18T14:48:41;20.00;58.80
30244;DHT22;64022;53.652;9.792;2022-12-18T14:53:42;20.00;58.80
30244;DHT22;64022;53.652;9.792;2022-12-18T14:56:17;20.00;58.70
30244;DHT22;64022;53.652;9.792;2022-12-18T14:58:56;20.00;58.60
30244;DHT22;64022;53.652;9.792;2022-12-18T15:01:33;20.00;58.60
30244;DHT22;64022;53.652;9.792;2022-12-18T15:04:01;20.00;58.50
30244;DHT22;64022;53.652;9.792;2022-12-18T15:06:36;20.00;58.40
30244;DHT22;64022;53.652;9.792;2022-12-18T15:09:23;20.00;58.40
30244;DHT22;64022;53.652;9.792;2022-12-18T15:11:55;20.00;58.40
30244;DHT22;64022;53.652;9.792;2022-12-18T15:17:19;20.00;58.30
30244;DHT22;64022;53.652;9.792;2022-12-18T15:19:47;20.00;58.30
30244;DHT22;64022;53.652;9.792;2022-12-18T15:22:18;20.00;58.20
30244;DHT22;64022;53.652;9.792;2022-12-18T15:24:45;20.00;58.30
30244;DHT22;64022;53.652;9.792;2022-12-18T15:27:31;20.00;58.30
30244;DHT22;64022;53.652;9.792;2022-12-18T15:30:21;20.10;58.20
30244;DHT22;64022;53.652;9.792;2022-12-18T15:32:47;20.10;58.20
30244;DHT22;64022;53.652;9.792;2022-12-18T15:35:22;20.10;58.40
30244;DHT22;64022;53.652;9.792;2022-12-18T15:37:49;20.10;58.40
30244;DHT22;64022;53.652;9.792;2022-12-18T15:40:19;20.10;58.40
30244;DHT22;64022;53.652;9.792;2022-12-18T15:42:45;20.10;58.40
30244;DHT22;64022;53.652;9.792;2022-12-18T15:45:29;20.10;58.30
30244;DHT22;64022;53.652;9.792;2022-12-18T15:47:55;20.10;58.40
30244;DHT22;64022;53.652;9.792;2022-12-18T15:50:21;20.10;58.40
30244;DHT22;64022;53.652;9.792;2022-12-18T15:52:49;20.10;58.40
30244;DHT22;64022;53.652;9.792;2022-12-18T15:55:22;20.10;58.40
30244;DHT22;64022;53.652;9.792;2022-12-18T15:58:08;20.10;58.40
30244;DHT22;64022;53.652;9.792;2022-12-18T16:00:35;20.10;58.40
30244;DHT22;64022;53.652;9.792;2022-12-18T16:03:02;20.20;58.50
30244;DHT22;64022;53.652;9.792;2022-12-18T16:05:28;20.20;58.50
30244;DHT22;64022;53.652;9.792;2022-12-18T16:07:54;20.20;58.40
30244;DHT22;64022;53.652;9.792;2022-12-18T16:10:20;20.20;58.70
30244;DHT22;64022;53.652;9.792;2022-12-18T16:12:46;20.20;58.70
30244;DHT22;64022;53.652;9.792;2022-12-18T16:15:13;20.20;58.70
30244;DHT22;64022;53.652;9.792;2022-12-18T16:17:40;20.20;58.70
30244;DHT22;64022;53.652;9.792;2022-12-18T16:20:19;20.20;58.80
30244;DHT22;64022;53.652;9.792;2022-12-18T16:22:46;20.20;58.80
30244;DHT22;64022;53.652;9.792;2022-12-18T16:25:18;20.20;58.80
30244;DHT22;64022;53.652;9.792;2022-12-18T16:27:44;20.20;58.80
30244;DHT22;64022;53.652;9.792;2022-12-18T16:30:18;20.20;58.80
30244;DHT22;64022;53.652;9.792;2022-12-18T16:32:44;20.30;58.80
30244;DHT22;64022;53.652;9.792;2022-12-18T16:35:11;20.30;58.90
30244;DHT22;64022;53.652;9.792;2022-12-18T16:37:36;20.20;58.80
30244;DHT22;64022;53.652;9.792;2022-12-18T16:40:02;20.30;58.90
30244;DHT22;64022;53.652;9.792;2022-12-18T16:42:28;20.20;58.80
30244;DHT22;64022;53.652;9.792;2022-12-18T16:44:53;20.20;58.70
30244;DHT22;64022;53.652;9.792;2022-12-18T16:47:19;20.20;58.70
30244;DHT22;64022;53.652;9.792;2022-12-18T16:49:45;20.20;58.60
30244;DHT22;64022;53.652;9.792;2022-12-18T16:52:11;20.20;58.60
30244;DHT22;64022;53.652;9.792;2022-12-18T16:54:36;20.20;58.60
30244;DHT22;64022;53.652;9.792;2022-12-18T16:57:03;20.20;58.60
30244;DHT22;64022;53.652;9.792;2022-12-18T16:59:29;20.20;58.60
30244;DHT22;64022;53.652;9.792;2022-12-18T17:01:55;20.20;58.60
30244;DHT22;64022;53.652;9.792;2022-12-18T17:04:21;20.10;58.60
30244;DHT22;64022;53.652;9.792;2022-12-18T17:06:47;20.10;58.60
30244;DHT22;64022;53.652;9.792;2022-12-18T17:09:18;20.10;58.50
30244;DHT22;64022;53.652;9.792;2022-12-18T17:11:53;20.10;58.50
30244;DHT22;64022;53.652;9.792;2022-12-18T17:14:21;20.10;58.50
30244;DHT22;64022;53.652;9.792;2022-12-18T17:16:47;20.10;58.50
30244;DHT22;64022;53.652;9.792;2022-12-18T17:19:13;20.10;58.40
30244;DHT22;64022;53.652;9.792;2022-12-18T17:21:40;20.10;58.40